Time;durP1;ratioP1;P1;durP2;ratioP2;P2;SDS_P1;SDS_P2;PMS_P1;PMS_P2;Temp;Humidity;BMP_temperature;BMP_pressure;BME280_temperature;BME280_humidity;BME280_pressure;Samples;Min_cycle;Max_cycle;Signal;HPM_P1;HPM_P2
2022/03/31 00:01:29;;;;;;;;;44.00;36.00;;;;;10.20;64.08;99428.19;4974206;28;46097;-52
2022/03/31 00:03:55;;;;;;;;;56.50;40.25;;;;;10.22;63.53;99436.91;4988179;28;45298;-54
2022/03/31 00:06:20;;;;;;;;;41.00;38.25;;;;;10.14;63.18;99439.22;4959842;28;45903;-52
2022/03/31 00:08:45;;;;;;;;;43.75;38.00;;;;;10.18;62.86;99446.03;4976291;28;45385;-54
2022/03/31 00:11:12;;;;;;;;;47.75;40.50;;;;;10.12;62.93;99431.38;4987585;28;46233;-52
2022/03/31 00:13:37;;;;;;;;;47.25;40.50;;;;;10.18;63.55;99430.09;4975703;28;45478;-56
2022/03/31 00:16:03;;;;;;;;;49.75;35.50;;;;;10.24;62.77;99430.53;4975361;28;45401;-53
2022/03/31 00:18:31;;;;;;;;;44.75;38.00;;;;;10.27;61.85;99432.09;4974876;28;45710;-53
2022/03/31 00:20:57;;;;;;;;;34.25;24.50;;;;;10.24;62.37;99419.03;4959256;28;45385;-54
2022/03/31 00:23:22;;;;;;;;;43.00;30.25;;;;;10.27;62.26;99429.44;4971303;28;45418;-51
2022/03/31 00:25:48;;;;;;;;;34.50;31.75;;;;;10.13;60.47;99403.00;4975719;28;45350;-55
2022/03/31 00:28:14;;;;;;;;;45.25;35.00;;;;;10.31;61.09;99430.94;4976171;28;45566;-51
2022/03/31 00:30:40;;;;;;;;;40.50;32.25;;;;;10.32;61.21;99430.81;4975367;28;45924;-50
2022/03/31 00:33:05;;;;;;;;;39.25;33.00;;;;;10.23;61.74;99412.03;4969199;28;45454;-51
2022/03/31 00:35:31;;;;;;;;;37.25;32.75;;;;;10.36;61.78;99427.94;4960544;28;45352;-51
2022/03/31 00:37:56;;;;;;;;;34.75;32.00;;;;;10.35;60.51;99421.78;4976424;28;45271;-51
2022/03/31 00:40:22;;;;;;;;;36.75;31.75;;;;;10.29;60.95;99411.59;4966525;28;45417;-52
2022/03/31 00:42:49;;;;;;;;;37.75;30.00;;;;;10.39;60.81;99423.22;4975780;28;45373;-54
2022/03/31 00:45:24;;;;;;;;;36.75;32.50;;;;;10.30;60.15;99422.13;4974801;28;45358;-54
2022/03/31 00:47:51;;;;;;;;;44.00;35.25;;;;;10.28;61.07;99417.84;4975749;28;45435;-51
2022/03/31 00:50:17;;;;;;;;;41.75;30.50;;;;;10.27;60.66;99417.00;4975227;28;46258;-51
2022/03/31 00:52:44;;;;;;;;;42.50;34.75;;;;;10.27;61.19;99416.16;4973201;28;45367;-54
2022/03/31 00:55:11;;;;;;;;;44.25;37.00;;;;;10.21;61.09;99398.88;4974992;28;45568;-51
2022/03/31 00:57:37;;;;;;;;;36.75;30.00;;;;;10.30;61.16;99403.50;4975674;28;45369;-49
2022/03/31 01:00:08;;;;;;;;;41.50;35.50;;;;;10.27;61.02;99405.53;4975339;28;45427;-57
2022/03/31 01:02:35;;;;;;;;;40.25;33.25;;;;;10.21;61.57;99408.63;4956029;28;45283;-54
2022/03/31 01:05:02;;;;;;;;;35.75;32.00;;;;;10.21;61.31;99398.00;4956216;28;45261;-50
2022/03/31 01:07:28;;;;;;;;;35.00;33.75;;;;;10.18;61.61;99395.56;4975329;28;45528;-54
2022/03/31 01:09:57;;;;;;;;;42.75;37.75;;;;;10.15;62.57;99395.75;4969446;28;46295;-51
2022/03/31 01:12:22;;;;;;;;;39.50;35.25;;;;;10.09;61.82;99397.06;4971770;28;45719;-52
2022/03/31 01:15:06;;;;;;;;;35.00;29.75;;;;;10.04;62.17;99394.75;4974093;28;45578;-52
2022/03/31 01:17:37;;;;;;;;;42.50;36.25;;;;;9.93;62.78;99388.53;4973262;28;45518;-52
2022/03/31 01:20:05;;;;;;;;;45.75;38.00;;;;;9.92;63.27;99393.00;5054400;27;47356;-50
2022/03/31 01:22:31;;;;;;;;;37.25;31.00;;;;;9.90;63.09;99397.56;4973418;28;46144;-52
2022/03/31 01:25:02;;;;;;;;;37.00;33.25;;;;;9.88;64.04;99401.28;4975225;28;45404;-49
2022/03/31 01:27:28;;;;;;;;;38.50;37.00;;;;;9.83;63.34;99398.97;4969090;28;45516;-51
2022/03/31 01:29:54;;;;;;;;;44.75;33.75;;;;;9.88;63.46;99386.19;4955033;28;46000;-51
2022/03/31 01:32:20;;;;;;;;;40.00;37.00;;;;;9.87;63.55;99381.84;4965739;28;45495;-52
2022/03/31 01:34:46;;;;;;;;;45.50;37.50;;;;;9.90;63.00;99386.97;4956635;28;45367;-52
2022/03/31 01:37:13;;;;;;;;;41.00;34.75;;;;;9.94;63.20;99377.78;4955425;28;45245;-53
2022/03/31 01:39:38;;;;;;;;;48.50;40.75;;;;;9.86;63.50;99371.34;4973620;28;45832;-50
2022/03/31 01:42:04;;;;;;;;;33.25;26.00;;;;;9.80;63.21;99369.97;4974847;28;45335;-50
2022/03/31 01:44:30;;;;;;;;;35.50;29.00;;;;;9.69;63.57;99367.25;4972647;28;45288;-53
2022/03/31 01:46:56;;;;;;;;;49.50;38.00;;;;;9.68;64.23;99370.88;4967009;28;45256;-55
2022/03/31 01:49:21;;;;;;;;;44.25;37.25;;;;;9.56;63.88;99367.28;4954936;28;45537;-54
2022/03/31 01:51:47;;;;;;;;;41.00;39.00;;;;;9.51;64.60;99357.97;4965231;28;45376;-57
2022/03/31 01:54:12;;;;;;;;;45.00;38.25;;;;;9.46;65.09;99358.25;4974670;28;45377;-54
2022/03/31 01:56:42;;;;;;;;;49.00;39.50;;;;;9.46;66.23;99369.72;4973355;28;45449;-55
2022/03/31 01:59:08;;;;;;;;;46.25;39.75;;;;;9.46;65.96;99358.25;4989722;28;45391;-51
2022/03/31 02:01:34;;;;;;;;;42.50;34.00;;;;;9.43;65.35;99354.03;4970903;28;45753;-50
2022/03/31 02:03:59;;;;;;;;;46.25;33.25;;;;;9.34;66.37;99336.09;4970454;28;45299;-50
2022/03/31 02:06:25;;;;;;;;;49.50;41.00;;;;;9.22;65.87;99318.41;4974243;28;46054;-53
2022/03/31 02:08:50;;;;;;;;;50.75;41.50;;;;;9.30;66.49;99350.53;4987441;28;47065;-50
2022/03/31 02:11:16;;;;;;;;;43.00;38.50;;;;;9.28;66.83;99352.47;4974258;28;45181;-52
2022/03/31 02:13:43;;;;;;;;;53.25;43.25;;;;;9.20;67.04;99352.16;4974589;28;46642;-53
2022/03/31 02:16:08;;;;;;;;;48.00;39.50;;;;;9.05;67.18;99354.06;4974664;28;45531;-51
2022/03/31 02:18:34;;;;;;;;;59.50;41.50;;;;;9.12;67.11;99349.19;4999109;28;47709;-52
2022/03/31 02:20:59;;;;;;;;;28.00;13.25;;;;;9.13;67.38;99348.25;4981244;27;45563;-55
2022/03/31 02:23:24;;;;;;;;;52.25;42.00;;;;;9.11;67.45;99355.44;4972978;28;45468;-51
2022/03/31 02:25:50;;;;;;;;;56.25;44.00;;;;;9.06;67.18;99349.59;4974785;28;45649;-53
2022/03/31 02:28:16;;;;;;;;;52.75;42.50;;;;;9.11;67.46;99352.78;4969574;28;45495;-51
2022/03/31 02:30:44;;;;;;;;;52.75;45.00;;;;;9.08;67.81;99353.00;4974248;27;45410;-54
2022/03/31 02:33:09;;;;;;;;;52.25;43.75;;;;;8.99;67.64;99353.66;4974299;28;45259;-54
2022/03/31 02:35:34;;;;;;;;;52.75;42.00;;;;;8.90;67.32;99341.03;4974668;27;45224;-52
2022/03/31 02:38:00;;;;;;;;;51.00;44.00;;;;;8.89;67.62;99348.13;4973011;28;45909;-53
2022/03/31 02:40:26;;;;;;;;;48.00;42.00;;;;;8.89;67.56;99352.59;4972678;28;47028;-54
2022/03/31 02:42:51;;;;;;;;;45.00;39.50;;;;;8.91;67.39;99351.53;4974521;28;45366;-51
2022/03/31 02:45:19;;;;;;;;;59.25;47.00;;;;;8.94;68.21;99353.94;4975208;28;45682;-55
2022/03/31 02:47:45;;;;;;;;;60.25;42.75;;;;;8.93;67.81;99354.06;4974376;28;47540;-52
2022/03/31 02:50:11;;;;;;;;;58.25;45.25;;;;;8.82;68.02;99334.44;4973678;28;45449;-53
2022/03/31 02:55:26;;;;;;;;;55.50;46.50;;;;;8.85;67.65;99346.63;4973246;28;45339;-51
2022/03/31 02:57:52;;;;;;;;;49.00;41.50;;;;;8.89;67.17;99355.25;4973772;27;45217;-52
2022/03/31 03:00:19;;;;;;;;;54.25;41.50;;;;;8.92;67.83;99347.06;4972519;28;45473;-50
2022/03/31 03:02:44;;;;;;;;;49.00;39.50;;;;;8.88;67.12;99340.28;4970819;28;45449;-48
2022/03/31 03:05:10;;;;;;;;;58.75;48.25;;;;;8.87;67.04;99352.69;4955417;28;45430;-51
2022/03/31 03:07:36;;;;;;;;;57.75;45.00;;;;;8.80;67.65;99324.91;4974084;28;45840;-49
2022/03/31 03:10:01;;;;;;;;;54.50;44.25;;;;;8.86;67.28;99343.91;4972520;28;45404;-55
2022/03/31 03:12:27;;;;;;;;;58.75;43.75;;;;;8.89;67.83;99341.97;4970253;28;45388;-56
2022/03/31 03:14:52;;;;;;;;;53.75;44.25;;;;;8.86;67.73;99338.59;4974274;28;45311;-50
2022/03/31 03:17:17;;;;;;;;;57.25;42.00;;;;;8.81;67.81;99334.53;4968983;28;47726;-53
2022/03/31 03:19:43;;;;;;;;;57.50;44.75;;;;;8.64;67.62;99317.16;5046429;28;45345;-51
2022/03/31 03:22:09;;;;;;;;;58.00;47.00;;;;;8.72;67.54;99322.75;5076698;27;45270;-52
2022/03/31 03:24:34;;;;;;;;;60.00;46.50;;;;;8.72;67.67;99325.41;4982465;28;45238;-53
2022/03/31 03:27:03;;;;;;;;;67.00;51.75;;;;;8.69;67.49;99317.69;4973597;28;46158;-53
2022/03/31 03:29:28;;;;;;;;;54.25;43.75;;;;;8.69;67.91;99320.31;4960446;28;45894;-53
2022/03/31 03:31:53;;;;;;;;;61.75;46.50;;;;;8.66;67.85;99317.88;4956905;28;45297;-55
2022/03/31 03:34:19;;;;;;;;;64.50;46.50;;;;;8.67;67.64;99316.94;4972052;28;45640;-50
2022/03/31 03:36:44;;;;;;;;;57.75;43.00;;;;;8.63;68.00;99315.47;4980393;27;48051;-51
2022/03/31 03:39:11;;;;;;;;;60.75;47.00;;;;;8.66;67.73;99319.69;4976079;28;45436;-51
2022/03/31 03:41:40;;;;;;;;;57.75;41.75;;;;;8.62;67.60;99308.47;4975742;28;45505;-54
2022/03/31 03:44:05;;;;;;;;;50.00;41.00;;;;;8.54;67.59;99300.19;4974927;28;45295;-54
2022/03/31 03:46:31;;;;;;;;;57.50;45.25;;;;;8.54;67.63;99316.06;4975441;28;45972;-54
2022/03/31 03:48:56;;;;;;;;;58.00;44.75;;;;;8.42;68.15;99301.00;4974697;28;45305;-53
2022/03/31 03:51:25;;;;;;;;;46.50;36.50;;;;;8.53;67.34;99320.53;4976455;28;45322;-51
2022/03/31 03:53:52;;;;;;;;;54.50;39.50;;;;;8.58;67.24;99315.75;4976441;28;45423;-53
2022/03/31 03:56:17;;;;;;;;;56.25;46.25;;;;;8.62;66.79;99320.88;4958794;28;45998;-51
2022/03/31 03:58:43;;;;;;;;;54.75;45.00;;;;;8.57;66.36;99321.16;4972869;28;45555;-50
2022/03/31 04:01:09;;;;;;;;;51.50;40.50;;;;;8.53;65.75;99317.03;4975781;28;45310;-51
2022/03/31 04:03:35;;;;;;;;;61.25;49.25;;;;;8.52;66.42;99324.13;4972355;28;45294;-49
2022/03/31 04:06:01;;;;;;;;;54.25;45.50;;;;;8.32;66.17;99311.34;4974861;28;46469;-52
2022/03/31 04:08:27;;;;;;;;;62.25;46.50;;;;;8.39;66.88;99323.25;4975470;27;45425;-51
2022/03/31 04:10:52;;;;;;;;;65.75;49.00;;;;;8.37;66.65;99324.31;4971455;28;45394;-50
2022/03/31 04:13:18;;;;;;;;;62.00;44.75;;;;;8.38;66.40;99320.72;4986109;28;45552;-48
2022/03/31 04:15:43;;;;;;;;;57.75;47.25;;;;;8.42;65.83;99323.06;4976120;28;45373;-51
2022/03/31 04:18:09;;;;;;;;;58.50;42.50;;;;;8.41;66.35;99320.50;4978776;27;45362;-48
2022/03/31 04:20:35;;;;;;;;;57.25;45.25;;;;;8.33;66.18;99328.06;5016891;28;45341;-48
2022/03/31 04:23:01;;;;;;;;;59.75;46.25;;;;;8.31;66.74;99329.97;4969401;28;45642;-51
2022/03/31 04:25:27;;;;;;;;;53.75;42.75;;;;;8.34;66.01;99329.81;4971518;28;45294;-51
2022/03/31 04:27:53;;;;;;;;;60.50;45.25;;;;;8.20;66.13;99326.28;4956841;28;45360;-49
2022/03/31 04:30:20;;;;;;;;;55.00;46.75;;;;;8.19;65.93;99326.34;4974145;28;45415;-52
2022/03/31 04:32:47;;;;;;;;;51.25;42.25;;;;;8.18;66.41;99330.78;4974050;28;45454;-49
2022/03/31 04:35:12;;;;;;;;;61.50;44.25;;;;;8.28;66.27;99331.03;4969067;28;45486;-52
2022/03/31 04:37:38;;;;;;;;;56.25;45.50;;;;;8.36;65.70;99328.78;4962662;28;45383;-56
2022/03/31 04:40:05;;;;;;;;;67.50;47.00;;;;;8.38;65.95;99342.75;4976055;28;45359;-49
2022/03/31 04:42:31;;;;;;;;;56.00;44.25;;;;;8.32;65.51;99326.38;4975806;28;45492;-53
2022/03/31 04:44:57;;;;;;;;;59.00;44.75;;;;;8.27;65.89;99330.19;4990724;27;47384;-50
2022/03/31 04:47:23;;;;;;;;;65.75;48.25;;;;;8.17;66.25;99329.09;4975388;28;45227;-51
2022/03/31 04:49:48;;;;;;;;;57.25;46.00;;;;;8.18;66.34;99319.34;4975835;28;45323;-50
2022/03/31 04:52:14;;;;;;;;;65.75;46.00;;;;;8.20;66.20;99325.41;4985990;28;45581;-51
2022/03/31 04:54:43;;;;;;;;;65.75;48.50;;;;;8.16;66.46;99322.09;4977225;28;46080;-53
2022/03/31 04:57:14;;;;;;;;;59.50;47.50;;;;;8.22;65.70;99303.19;4976634;28;45302;-50
2022/03/31 04:59:41;;;;;;;;;59.25;46.50;;;;;8.27;65.33;99319.59;4975334;28;45284;-51
2022/03/31 05:02:07;;;;;;;;;64.75;48.25;;;;;8.19;66.22;99315.75;4969106;28;45284;-50
2022/03/31 05:04:32;;;;;;;;;57.25;47.00;;;;;8.13;66.30;99316.19;4975435;28;46241;-52
2022/03/31 05:06:58;;;;;;;;;59.50;47.50;;;;;8.15;66.27;99315.13;4972344;28;45558;-52
2022/03/31 05:09:24;;;;;;;;;55.00;45.50;;;;;8.25;66.59;99331.25;4966437;28;45347;-49
2022/03/31 05:11:49;;;;;;;;;62.75;49.00;;;;;8.22;66.16;99321.72;4972989;28;45593;-52
2022/03/31 05:14:15;;;;;;;;;63.75;47.00;;;;;8.26;66.17;99333.78;4974922;27;45399;-50
2022/03/31 05:16:40;;;;;;;;;59.75;47.50;;;;;8.27;66.10;99324.06;5002898;28;45467;-50
2022/03/31 05:19:06;;;;;;;;;59.50;47.00;;;;;8.27;65.87;99332.84;5068861;27;45322;-51
2022/03/31 05:21:31;;;;;;;;;61.50;50.75;;;;;8.23;65.78;99330.50;4975889;28;45395;-55
2022/03/31 05:24:03;;;;;;;;;71.75;50.50;;;;;8.20;66.36;99336.88;4973792;28;45356;-48
2022/03/31 05:26:29;;;;;;;;;65.75;53.00;;;;;8.20;66.15;99339.50;4979772;27;45489;-52
2022/03/31 05:28:54;;;;;;;;;66.75;51.75;;;;;8.14;66.46;99342.56;4983196;27;45432;-54
2022/03/31 05:31:20;;;;;;;;;71.25;51.50;;;;;8.11;66.80;99342.75;4983452;28;45599;-52
2022/03/31 05:33:45;;;;;;;;;74.25;52.25;;;;;8.11;66.69;99340.13;4967454;28;45660;-52
2022/03/31 05:36:10;;;;;;;;;69.75;51.00;;;;;7.96;67.30;99325.25;4968855;28;45737;-51
2022/03/31 05:38:36;;;;;;;;;67.50;52.50;;;;;8.01;67.47;99338.16;4974497;28;45356;-56
2022/03/31 05:41:02;;;;;;;;;65.25;49.25;;;;;8.08;66.82;99342.97;4975449;28;45417;-53
2022/03/31 05:43:28;;;;;;;;;66.50;50.00;;;;;8.04;67.03;99336.16;4975689;28;45381;-53
2022/03/31 05:45:54;;;;;;;;;66.00;52.00;;;;;8.12;67.35;99351.56;4981366;27;45538;-53
2022/03/31 05:48:20;;;;;;;;;71.00;54.50;;;;;8.03;67.04;99342.41;4973424;28;45472;-55
2022/03/31 05:50:45;;;;;;;;;72.75;54.25;;;;;8.21;67.05;99343.84;4973483;28;45417;-53
2022/03/31 05:53:15;;;;;;;;;72.00;53.00;;;;;8.33;67.11;99357.22;4993711;27;45690;-54
2022/03/31 05:55:40;;;;;;;;;63.50;51.25;;;;;8.39;66.49;99360.34;4969880;28;45482;-53
2022/03/31 05:58:07;;;;;;;;;73.50;59.75;;;;;8.33;66.00;99346.63;4955439;28;45470;-55
2022/03/31 06:00:32;;;;;;;;;80.75;60.50;;;;;8.40;66.45;99361.19;4983351;28;45663;-56
2022/03/31 06:02:58;;;;;;;;;72.00;55.75;;;;;8.27;66.79;99332.84;4981000;28;46075;-57
2022/03/31 06:05:24;;;;;;;;;70.50;53.25;;;;;8.43;67.02;99363.63;4986416;28;45747;-56
2022/03/31 06:07:52;;;;;;;;;71.50;56.50;;;;;8.34;67.16;99359.81;4955327;28;45220;-55
2022/03/31 06:10:18;;;;;;;;;74.75;55.25;;;;;8.33;67.16;99366.00;4981450;28;45332;-61
2022/03/31 06:12:44;;;;;;;;;66.25;52.25;;;;;8.40;66.97;99361.19;4993719;28;46269;-56
2022/03/31 06:15:09;;;;;;;;;73.25;54.75;;;;;8.43;66.93;99374.25;4973630;28;45489;-58
2022/03/31 06:17:35;;;;;;;;;70.00;51.00;;;;;8.41;67.33;99378.78;5005179;27;45462;-57
2022/03/31 06:20:00;;;;;;;;;78.00;58.25;;;;;8.39;67.54;99354.22;4972058;28;45634;-58
2022/03/31 06:22:26;;;;;;;;;74.50;59.00;;;;;8.30;67.84;99347.69;4978830;28;45322;-51
2022/03/31 06:24:51;;;;;;;;;77.50;59.25;;;;;8.37;67.70;99364.06;4972697;28;45490;-53
2022/03/31 06:27:17;;;;;;;;;69.25;56.75;;;;;8.32;67.70;99364.31;4974365;28;45435;-54
2022/03/31 06:29:48;;;;;;;;;73.50;54.00;;;;;8.40;67.18;99371.78;4962221;28;45314;-54
2022/03/31 06:32:14;;;;;;;;;76.25;54.00;;;;;8.45;67.53;99388.22;4959407;28;46788;-52
2022/03/31 06:34:40;;;;;;;;;76.25;58.00;;;;;8.51;67.01;99382.53;4969875;28;45555;-51
2022/03/31 06:37:06;;;;;;;;;66.50;48.25;;;;;8.59;66.85;99393.44;4978925;28;45354;-55
2022/03/31 06:39:32;;;;;;;;;74.75;56.75;;;;;8.44;66.04;99378.59;4982353;27;45566;-54
2022/03/31 06:41:57;;;;;;;;;66.50;53.50;;;;;8.43;65.79;99382.19;4970676;28;45890;-53
2022/03/31 06:44:23;;;;;;;;;68.75;54.75;;;;;8.47;66.62;99381.06;4955902;28;45225;-51
2022/03/31 06:46:48;;;;;;;;;81.75;58.25;;;;;8.54;66.06;99377.03;4969335;28;45461;-53
2022/03/31 06:49:14;;;;;;;;;69.75;54.25;;;;;8.61;65.61;99378.31;4965536;28;45337;-52
2022/03/31 06:51:39;;;;;;;;;68.75;54.00;;;;;8.67;65.74;99364.66;4971378;28;46899;-52
2022/03/31 06:54:05;;;;;;;;;75.75;56.75;;;;;8.76;65.43;99364.03;4976990;27;45347;-52
2022/03/31 06:56:31;;;;;;;;;75.50;56.75;;;;;8.90;64.70;99375.50;4969434;28;45672;-51
2022/03/31 06:58:58;;;;;;;;;65.00;49.75;;;;;8.88;64.24;99361.50;4974419;28;45292;-53
2022/03/31 07:01:25;;;;;;;;;71.25;53.00;;;;;8.91;64.63;99362.13;4966031;28;45263;-55
2022/03/31 07:03:51;;;;;;;;;72.00;53.00;;;;;9.02;64.65;99369.34;4954329;28;45399;-58
2022/03/31 07:06:17;;;;;;;;;64.25;51.00;;;;;9.09;63.60;99366.16;4954795;28;45413;-54
2022/03/31 07:08:42;;;;;;;;;55.00;46.75;;;;;9.09;62.65;99354.69;4964260;28;45725;-53
2022/03/31 07:11:09;;;;;;;;;73.50;52.00;;;;;9.01;63.76;99352.59;4972186;28;47542;-55
2022/03/31 07:13:39;;;;;;;;;69.50;53.25;;;;;8.89;63.68;99344.63;4973660;28;45462;-52
2022/03/31 07:16:08;;;;;;;;;68.25;47.25;;;;;9.02;63.94;99372.84;4970047;28;45446;-52
2022/03/31 07:18:34;;;;;;;;;69.75;52.75;;;;;9.16;64.06;99366.59;4998045;28;45527;-54
2022/03/31 07:20:59;;;;;;;;;64.25;54.00;;;;;8.91;63.93;99321.50;5076291;27;45483;-52
2022/03/31 07:23:26;;;;;;;;;67.25;53.50;;;;;9.01;63.37;99363.19;5032383;27;45337;-52
2022/03/31 07:25:58;;;;;;;;;67.25;49.50;;;;;9.03;64.59;99373.69;4961899;28;45198;-53
2022/03/31 07:28:24;;;;;;;;;71.25;57.00;;;;;9.04;64.64;99373.59;4974750;28;45335;-55
2022/03/31 07:30:50;;;;;;;;;65.50;49.75;;;;;8.96;64.55;99377.72;4974775;28;46110;-56
2022/03/31 07:33:19;;;;;;;;;65.25;52.50;;;;;9.02;65.27;99388.75;4956093;28;45204;-54
2022/03/31 07:35:44;;;;;;;;;67.50;45.50;;;;;9.09;64.55;99383.88;4955625;28;45379;-56
2022/03/31 07:38:10;;;;;;;;;64.50;50.25;;;;;9.03;65.23;99376.34;4968265;28;46063;-55
2022/03/31 07:40:38;;;;;;;;;59.75;48.00;;;;;9.02;65.49;99379.97;4961315;28;46666;-53
2022/03/31 07:43:05;;;;;;;;;67.25;53.75;;;;;8.88;65.50;99380.91;4962456;28;45517;-55
2022/03/31 07:45:35;;;;;;;;;69.25;52.25;;;;;8.76;66.51;99389.69;4956551;28;45283;-54
2022/03/31 07:48:03;;;;;;;;;69.50;53.00;;;;;8.67;66.96;99396.44;4988913;28;45577;-55
2022/03/31 07:50:29;;;;;;;;;71.00;55.25;;;;;8.67;67.71;99391.16;4969527;28;46376;-53
2022/03/31 07:52:55;;;;;;;;;68.25;55.25;;;;;8.51;67.79;99386.03;4978498;28;45295;-57
2022/03/31 07:55:21;;;;;;;;;73.50;55.00;;;;;8.51;68.11;99393.97;4990654;28;45466;-50
2022/03/31 07:57:46;;;;;;;;;53.25;45.25;;;;;8.64;68.36;99395.81;4987013;27;45215;-54
2022/03/31 08:00:13;;;;;;;;;75.50;55.50;;;;;8.70;68.94;99395.38;4970483;28;46462;-53
2022/03/31 08:02:41;;;;;;;;;66.75;55.75;;;;;8.54;69.65;99375.22;4970181;28;45554;-54
2022/03/31 08:05:09;;;;;;;;;65.00;52.00;;;;;8.68;70.75;99405.25;4956650;28;45344;-53
2022/03/31 08:07:35;;;;;;;;;64.25;52.50;;;;;8.69;70.07;99410.44;4960233;28;45442;-55
2022/03/31 08:10:00;;;;;;;;;61.00;45.75;;;;;8.53;71.19;99404.47;4975128;28;45549;-53
2022/03/31 08:12:26;;;;;;;;;46.00;39.75;;;;;8.35;71.21;99400.41;4952507;28;45486;-54
2022/03/31 08:14:51;;;;;;;;;43.50;35.50;;;;;8.18;71.74;99404.09;4960049;28;45480;-58
2022/03/31 08:17:17;;;;;;;;;32.00;25.25;;;;;8.09;71.18;99425.91;4966073;28;45402;-51
2022/03/31 08:19:43;;;;;;;;;27.75;26.00;;;;;8.02;68.98;99430.72;5011962;28;45372;-53
2022/03/31 08:22:09;;;;;;;;;20.25;19.50;;;;;7.84;68.44;99437.22;4968117;28;45383;-55
2022/03/31 08:24:37;;;;;;;;;21.00;18.50;;;;;7.69;68.68;99436.38;4969988;28;45707;-52
2022/03/31 08:27:06;;;;;;;;;17.50;16.75;;;;;7.42;67.76;99428.31;4958479;28;45529;-56
2022/03/31 08:29:33;;;;;;;;;12.50;12.00;;;;;7.28;67.53;99449.47;4957161;28;45488;-55
2022/03/31 08:31:58;;;;;;;;;18.50;18.25;;;;;7.17;68.06;99451.94;4961871;28;45735;-54
2022/03/31 08:34:24;;;;;;;;;21.00;18.00;;;;;7.17;70.11;99457.25;4974777;28;45407;-55
2022/03/31 08:36:53;;;;;;;;;19.25;17.50;;;;;7.28;68.92;99460.06;4991373;28;45420;-54
2022/03/31 08:39:18;;;;;;;;;19.50;15.50;;;;;7.30;69.12;99459.03;4971200;28;45254;-50
2022/03/31 08:41:44;;;;;;;;;13.50;13.50;;;;;7.33;67.25;99458.00;4974697;28;45402;-54
2022/03/31 08:44:15;;;;;;;;;11.00;10.00;;;;;7.40;66.59;99481.31;4975744;28;45448;-54
2022/03/31 08:46:41;;;;;;;;;11.75;9.75;;;;;7.22;66.69;99490.38;4974887;27;45604;-64
2022/03/31 08:49:10;;;;;;;;;12.00;10.25;;;;;6.96;66.75;99470.78;4974110;28;45567;-54
2022/03/31 08:51:36;;;;;;;;;10.50;10.50;;;;;6.99;67.88;99491.72;4974265;28;45535;-57
2022/03/31 08:54:02;;;;;;;;;13.25;12.00;;;;;6.94;67.33;99485.88;4974071;28;45453;-55
2022/03/31 08:56:28;;;;;;;;;12.75;12.75;;;;;6.96;68.12;99491.91;4974482;27;45665;-54
2022/03/31 08:58:53;;;;;;;;;12.50;12.00;;;;;6.94;68.23;99493.81;4975568;28;45460;-53
2022/03/31 09:01:19;;;;;;;;;11.00;10.25;;;;;7.04;67.24;99510.00;4959608;28;45311;-50
2022/03/31 09:03:45;;;;;;;;;9.00;9.00;;;;;6.84;66.97;99503.22;4954823;28;45828;-55
2022/03/31 09:06:39;;;;;;;;;12.75;9.00;;;;;6.62;68.01;99534.44;4955078;28;45327;-54
2022/03/31 09:09:05;;;;;;;;;13.50;12.50;;;;;6.54;67.77;99534.03;4959595;28;45457;-52
2022/03/31 09:11:37;;;;;;;;;10.50;8.50;;;;;6.31;67.40;99544.06;4973353;28;45435;-51
2022/03/31 09:14:06;;;;;;;;;6.00;6.00;;;;;6.30;69.06;99545.03;4972073;28;45351;-54
2022/03/31 09:16:37;;;;;;;;;13.00;12.00;;;;;6.33;69.73;99554.56;4970904;28;45611;-55
2022/03/31 09:19:09;;;;;;;;;13.00;11.50;;;;;6.20;68.46;99564.94;5002442;28;46036;-50
2022/03/31 09:21:54;;;;;;;;;10.50;8.50;;;;;6.11;68.84;99558.34;4965983;28;45451;-53
2022/03/31 09:24:22;;;;;;;;;7.25;4.75;;;;;6.12;69.25;99568.00;4973739;28;45238;-55
2022/03/31 09:26:50;;;;;;;;;10.50;5.50;;;;;6.20;69.92;99571.06;4965086;27;45386;-53
2022/03/31 09:29:19;;;;;;;;;5.50;5.50;;;;;6.24;69.87;99571.75;4959703;28;45496;-55
2022/03/31 09:31:46;;;;;;;;;11.00;9.00;;;;;6.24;70.36;99581.44;4965088;28;45505;-56
2022/03/31 09:34:13;;;;;;;;;6.00;6.00;;;;;6.02;68.89;99580.00;4969478;28;45681;-57
2022/03/31 09:36:43;;;;;;;;;12.50;11.00;;;;;6.03;70.12;99583.47;4977701;28;45635;-57
2022/03/31 09:39:13;;;;;;;;;11.00;11.00;;;;;5.98;69.76;99569.66;5075038;28;46150;-57
2022/03/31 09:41:41;;;;;;;;;12.25;10.00;;;;;5.91;68.53;99596.38;5038806;27;45676;-57
2022/03/31 09:44:18;;;;;;;;;11.25;9.50;;;;;5.97;69.82;99573.22;4967076;28;45305;-52
2022/03/31 09:46:45;;;;;;;;;11.25;11.00;;;;;6.06;70.42;99588.59;4963968;28;45506;-53
2022/03/31 09:49:16;;;;;;;;;7.50;7.50;;;;;5.91;68.94;99592.91;4955767;28;45304;-53
2022/03/31 09:51:44;;;;;;;;;6.50;6.25;;;;;5.90;68.60;99605.25;4955173;28;45457;-54
2022/03/31 09:54:09;;;;;;;;;7.00;5.00;;;;;5.86;69.28;99585.19;4955693;28;45173;-51
2022/03/31 09:56:38;;;;;;;;;8.50;8.00;;;;;5.72;69.42;99587.69;4962257;28;45475;-53
2022/03/31 09:59:05;;;;;;;;;11.75;11.75;;;;;5.73;69.40;99586.78;4969432;28;47018;-54
2022/03/31 10:01:31;;;;;;;;;13.25;8.25;;;;;5.85;68.89;99580.81;4965238;28;45403;-52
2022/03/31 10:03:57;;;;;;;;;9.00;9.00;;;;;5.92;68.99;99602.50;4973470;28;45453;-53
2022/03/31 10:06:26;;;;;;;;;8.00;8.00;;;;;5.95;69.15;99601.50;4971555;28;45490;-53
2022/03/31 10:08:53;;;;;;;;;16.25;12.00;;;;;5.86;69.80;99592.28;4962125;28;46176;-52
2022/03/31 10:11:20;;;;;;;;;10.50;6.75;;;;;5.93;68.92;99608.66;4977569;28;45717;-57
2022/03/31 10:14:08;;;;;;;;;8.75;6.50;;;;;6.01;69.81;99602.03;4972112;28;45508;-53
2022/03/31 10:16:44;;;;;;;;;11.50;10.00;;;;;6.14;69.02;99615.44;4915173;28;45277;-54
2022/03/31 10:19:10;;;;;;;;;4.50;4.50;;;;;6.13;70.14;99600.53;5012740;28;47794;-54
2022/03/31 10:21:36;;;;;;;;;7.25;7.25;;;;;6.02;68.24;99602.88;4970707;28;45565;-54
2022/03/31 10:26:56;;;;;;;;;11.50;7.50;;;;;6.17;69.69;99597.63;4967247;28;45177;-53
2022/03/31 10:29:22;;;;;;;;;8.00;8.00;;;;;6.21;69.01;99571.91;4953561;28;46083;-51
2022/03/31 10:31:48;;;;;;;;;11.75;7.50;;;;;6.41;68.70;99571.69;4955000;28;45416;-51
2022/03/31 10:34:14;;;;;;;;;6.25;6.25;;;;;6.45;68.13;99598.78;4955644;28;45468;-53
2022/03/31 10:36:47;;;;;;;;;8.50;6.00;;;;;6.54;68.03;99600.91;4954333;28;45348;-55
2022/03/31 10:39:27;;;;;;;;;6.50;4.50;;;;;6.70;68.43;99608.84;4954861;28;45715;-57
2022/03/31 10:42:10;;;;;;;;;8.00;5.25;;;;;6.89;67.75;99604.22;4968539;28;45507;-56
2022/03/31 10:44:36;;;;;;;;;4.00;4.00;;;;;6.92;66.46;99597.94;4978311;28;45417;-53
2022/03/31 10:47:07;;;;;;;;;1.50;1.25;;;;;6.83;66.70;99591.34;4974392;28;45422;-56
2022/03/31 10:49:34;;;;;;;;;4.00;4.00;;;;;6.60;66.52;99571.50;4972674;28;47714;-55
2022/03/31 10:52:17;;;;;;;;;4.75;4.75;;;;;6.85;67.23;99584.19;4958056;28;45462;-55
2022/03/31 10:54:43;;;;;;;;;6.00;6.00;;;;;7.08;66.01;99586.38;4954672;28;45253;-54
2022/03/31 10:57:13;;;;;;;;;4.25;4.00;;;;;7.22;66.52;99584.72;4960759;28;45318;-56
2022/03/31 10:59:40;;;;;;;;;4.00;4.00;;;;;6.98;63.87;99571.97;4974308;28;45415;-52
2022/03/31 11:02:19;;;;;;;;;5.50;5.50;;;;;6.92;63.93;99595.28;4974471;28;45421;-56
2022/03/31 11:04:53;;;;;;;;;4.25;4.25;;;;;7.12;66.11;99592.34;4972457;28;45473;-54
2022/03/31 11:07:22;;;;;;;;;8.25;6.00;;;;;7.09;63.91;99585.44;4971612;28;45565;-53
2022/03/31 11:09:47;;;;;;;;;10.00;6.00;;;;;7.35;65.37;99588.34;4954194;28;46399;-52
2022/03/31 11:12:26;;;;;;;;;5.75;4.00;;;;;7.64;64.18;99587.47;4954181;28;45430;-53
2022/03/31 11:15:00;;;;;;;;;11.00;5.75;;;;;7.86;63.48;99578.25;4953393;28;45348;-55
2022/03/31 11:17:26;;;;;;;;;10.00;9.00;;;;;7.85;61.74;99576.53;4953993;28;45273;-56
2022/03/31 11:19:53;;;;;;;;;11.75;9.00;;;;;7.83;62.12;99595.19;5049200;27;46196;-58
2022/03/31 11:22:27;;;;;;;;;12.00;10.50;;;;;7.70;62.39;99578.34;5076576;27;45317;-53
2022/03/31 11:24:54;;;;;;;;;10.00;6.00;;;;;7.65;61.44;99590.97;5041624;27;45361;-53
2022/03/31 11:27:38;;;;;;;;;9.00;6.00;;;;;7.61;61.57;99585.03;4952916;28;45578;-52
2022/03/31 11:30:07;;;;;;;;;6.00;6.00;;;;;7.76;62.57;99592.97;4954146;28;46917;-54
2022/03/31 11:32:34;;;;;;;;;8.25;8.25;;;;;7.80;62.39;99584.75;4980790;28;45425;-54